sensor_id;sensor_type;location;lat;lon;timestamp;P1;durP1;ratioP1;P2;durP2;ratioP2
9716;SDS011;4897;43.570;27.832;2023-02-28T00:01:47;5.53;;;4.15;;
9716;SDS011;4897;43.570;27.832;2023-02-28T00:04:14;4.28;;;3.63;;
9716;SDS011;4897;43.570;27.832;2023-02-28T00:06:40;4.57;;;3.88;;
9716;SDS011;4897;43.570;27.832;2023-02-28T00:09:08;4.38;;;3.60;;
9716;SDS011;4897;43.570;27.832;2023-02-28T00:11:36;4.45;;;3.95;;
9716;SDS011;4897;43.570;27.832;2023-02-28T00:14:03;4.20;;;3.65;;
9716;SDS011;4897;43.570;27.832;2023-02-28T00:16:30;6.30;;;4.95;;
9716;SDS011;4897;43.570;27.832;2023-02-28T00:18:57;5.13;;;4.40;;
9716;SDS011;4897;43.570;27.832;2023-02-28T00:21:23;5.57;;;4.55;;
9716;SDS011;4897;43.570;27.832;2023-02-28T00:23:51;5.55;;;4.65;;
9716;SDS011;4897;43.570;27.832;2023-02-28T00:26:18;5.75;;;4.57;;
9716;SDS011;4897;43.570;27.832;2023-02-28T00:28:46;5.78;;;4.93;;
9716;SDS011;4897;43.570;27.832;2023-02-28T00:31:13;5.97;;;4.93;;
9716;SDS011;4897;43.570;27.832;2023-02-28T00:33:40;5.32;;;4.50;;
9716;SDS011;4897;43.570;27.832;2023-02-28T00:36:11;5.60;;;4.43;;
9716;SDS011;4897;43.570;27.832;2023-02-28T00:38:38;5.63;;;4.30;;
9716;SDS011;4897;43.570;27.832;2023-02-28T00:41:06;5.15;;;4.35;;
9716;SDS011;4897;43.570;27.832;2023-02-28T00:43:34;5.82;;;4.57;;
9716;SDS011;4897;43.570;27.832;2023-02-28T00:46:05;5.57;;;4.53;;
9716;SDS011;4897;43.570;27.832;2023-02-28T00:48:36;6.32;;;4.65;;
9716;SDS011;4897;43.570;27.832;2023-02-28T00:51:03;4.72;;;4.22;;
9716;SDS011;4897;43.570;27.832;2023-02-28T00:53:30;5.28;;;4.10;;
9716;SDS011;4897;43.570;27.832;2023-02-28T00:55:58;5.53;;;4.03;;
9716;SDS011;4897;43.570;27.832;2023-02-28T00:58:28;4.93;;;4.20;;
9716;SDS011;4897;43.570;27.832;2023-02-28T01:00:55;5.65;;;4.03;;
9716;SDS011;4897;43.570;27.832;2023-02-28T01:03:23;5.78;;;4.13;;
9716;SDS011;4897;43.570;27.832;2023-02-28T01:05:50;5.35;;;3.60;;
9716;SDS011;4897;43.570;27.832;2023-02-28T01:08:18;4.53;;;3.60;;
9716;SDS011;4897;43.570;27.832;2023-02-28T01:10:45;4.50;;;3.42;;
9716;SDS011;4897;43.570;27.832;2023-02-28T01:13:12;4.93;;;3.67;;
9716;SDS011;4897;43.570;27.832;2023-02-28T01:15:46;3.05;;;2.67;;
9716;SDS011;4897;43.570;27.832;2023-02-28T01:18:16;3.53;;;3.10;;
9716;SDS011;4897;43.570;27.832;2023-02-28T01:20:44;3.72;;;3.15;;
9716;SDS011;4897;43.570;27.832;2023-02-28T01:23:11;3.58;;;2.90;;
9716;SDS011;4897;43.570;27.832;2023-02-28T01:25:38;2.88;;;2.58;;
9716;SDS011;4897;43.570;27.832;2023-02-28T01:28:06;3.78;;;2.97;;
9716;SDS011;4897;43.570;27.832;2023-02-28T01:30:32;4.88;;;3.22;;
9716;SDS011;4897;43.570;27.832;2023-02-28T01:32:59;3.53;;;3.05;;
9716;SDS011;4897;43.570;27.832;2023-02-28T01:35:26;4.60;;;3.30;;
9716;SDS011;4897;43.570;27.832;2023-02-28T01:37:55;8.00;;;4.40;;
9716;SDS011;4897;43.570;27.832;2023-02-28T01:40:21;10.20;;;6.85;;
9716;SDS011;4897;43.570;27.832;2023-02-28T01:42:48;18.95;;;14.90;;
9716;SDS011;4897;43.570;27.832;2023-02-28T01:45:20;4.63;;;4.00;;
9716;SDS011;4897;43.570;27.832;2023-02-28T01:47:52;4.70;;;3.72;;
9716;SDS011;4897;43.570;27.832;2023-02-28T01:50:22;4.03;;;3.08;;
9716;SDS011;4897;43.570;27.832;2023-02-28T01:52:53;24.50;;;18.05;;
9716;SDS011;4897;43.570;27.832;2023-02-28T01:55:26;4.40;;;3.58;;
9716;SDS011;4897;43.570;27.832;2023-02-28T01:57:55;20.63;;;13.98;;
9716;SDS011;4897;43.570;27.832;2023-02-28T02:00:24;34.05;;;25.45;;
9716;SDS011;4897;43.570;27.832;2023-02-28T02:02:53;13.95;;;9.88;;
9716;SDS011;4897;43.570;27.832;2023-02-28T02:05:23;37.60;;;28.33;;
9716;SDS011;4897;43.570;27.832;2023-02-28T02:07:52;11.15;;;9.48;;
9716;SDS011;4897;43.570;27.832;2023-02-28T02:10:24;33.88;;;27.08;;
9716;SDS011;4897;43.570;27.832;2023-02-28T02:13:18;25.85;;;20.38;;
9716;SDS011;4897;43.570;27.832;2023-02-28T02:15:56;8.02;;;6.05;;
9716;SDS011;4897;43.570;27.832;2023-02-28T02:18:31;9.95;;;6.47;;
9716;SDS011;4897;43.570;27.832;2023-02-28T02:24:23;28.88;;;22.08;;
9716;SDS011;4897;43.570;27.832;2023-02-28T02:27:16;19.13;;;13.90;;
9716;SDS011;4897;43.570;27.832;2023-02-28T02:35:59;4.30;;;3.13;;
9716;SDS011;4897;43.570;27.832;2023-02-28T02:38:33;2.95;;;2.58;;
9716;SDS011;4897;43.570;27.832;2023-02-28T02:41:08;3.15;;;2.85;;
9716;SDS011;4897;43.570;27.832;2023-02-28T02:43:42;3.20;;;2.80;;
9716;SDS011;4897;43.570;27.832;2023-02-28T02:46:15;4.57;;;3.45;;
9716;SDS011;4897;43.570;27.832;2023-02-28T02:48:46;5.78;;;4.07;;
9716;SDS011;4897;43.570;27.832;2023-02-28T02:51:16;5.05;;;4.15;;
9716;SDS011;4897;43.570;27.832;2023-02-28T02:53:46;4.32;;;3.38;;
9716;SDS011;4897;43.570;27.832;2023-02-28T02:56:16;6.40;;;3.90;;
9716;SDS011;4897;43.570;27.832;2023-02-28T02:58:46;6.95;;;4.28;;
9716;SDS011;4897;43.570;27.832;2023-02-28T03:01:17;4.28;;;3.50;;
9716;SDS011;4897;43.570;27.832;2023-02-28T03:03:52;5.60;;;4.45;;
9716;SDS011;4897;43.570;27.832;2023-02-28T03:06:23;7.28;;;4.65;;
9716;SDS011;4897;43.570;27.832;2023-02-28T03:08:50;4.28;;;3.55;;
9716;SDS011;4897;43.570;27.832;2023-02-28T03:11:17;6.65;;;5.00;;
9716;SDS011;4897;43.570;27.832;2023-02-28T03:13:51;4.95;;;3.85;;
9716;SDS011;4897;43.570;27.832;2023-02-28T03:16:41;5.57;;;4.40;;
9716;SDS011;4897;43.570;27.832;2023-02-28T03:19:34;5.35;;;4.05;;
9716;SDS011;4897;43.570;27.832;2023-02-28T03:22:21;4.88;;;3.90;;
9716;SDS011;4897;43.570;27.832;2023-02-28T03:25:06;5.88;;;4.45;;
9716;SDS011;4897;43.570;27.832;2023-02-28T03:27:38;5.93;;;4.40;;
9716;SDS011;4897;43.570;27.832;2023-02-28T03:30:10;9.95;;;7.55;;
9716;SDS011;4897;43.570;27.832;2023-02-28T03:32:50;6.85;;;5.53;;
9716;SDS011;4897;43.570;27.832;2023-02-28T03:35:23;7.97;;;5.88;;
9716;SDS011;4897;43.570;27.832;2023-02-28T03:37:55;7.63;;;6.20;;
9716;SDS011;4897;43.570;27.832;2023-02-28T03:40:28;7.20;;;5.93;;
9716;SDS011;4897;43.570;27.832;2023-02-28T03:42:59;7.93;;;5.88;;
9716;SDS011;4897;43.570;27.832;2023-02-28T03:45:35;8.38;;;6.07;;
9716;SDS011;4897;43.570;27.832;2023-02-28T03:48:05;10.40;;;6.13;;
9716;SDS011;4897;43.570;27.832;2023-02-28T03:50:40;6.80;;;5.40;;
9716;SDS011;4897;43.570;27.832;2023-02-28T03:53:10;9.88;;;6.45;;
9716;SDS011;4897;43.570;27.832;2023-02-28T03:55:41;10.10;;;7.22;;
9716;SDS011;4897;43.570;27.832;2023-02-28T03:58:12;9.88;;;6.82;;
9716;SDS011;4897;43.570;27.832;2023-02-28T04:00:47;7.28;;;5.82;;
9716;SDS011;4897;43.570;27.832;2023-02-28T04:03:17;8.15;;;6.15;;
9716;SDS011;4897;43.570;27.832;2023-02-28T04:05:46;8.55;;;5.80;;
9716;SDS011;4897;43.570;27.832;2023-02-28T04:08:18;9.38;;;6.10;;
9716;SDS011;4897;43.570;27.832;2023-02-28T04:10:47;7.75;;;5.95;;
9716;SDS011;4897;43.570;27.832;2023-02-28T04:13:19;8.65;;;6.18;;
9716;SDS011;4897;43.570;27.832;2023-02-28T04:15:46;8.07;;;5.95;;
9716;SDS011;4897;43.570;27.832;2023-02-28T04:18:13;7.95;;;5.57;;
9716;SDS011;4897;43.570;27.832;2023-02-28T04:20:40;7.38;;;5.70;;
9716;SDS011;4897;43.570;27.832;2023-02-28T04:23:07;6.65;;;5.40;;
9716;SDS011;4897;43.570;27.832;2023-02-28T04:25:35;6.80;;;5.78;;
9716;SDS011;4897;43.570;27.832;2023-02-28T04:28:02;8.07;;;6.75;;
9716;SDS011;4897;43.570;27.832;2023-02-28T04:30:29;6.38;;;5.22;;
9716;SDS011;4897;43.570;27.832;2023-02-28T04:32:57;7.57;;;5.75;;
9716;SDS011;4897;43.570;27.832;2023-02-28T04:35:24;9.07;;;6.50;;
9716;SDS011;4897;43.570;27.832;2023-02-28T04:37:51;8.02;;;6.38;;
9716;SDS011;4897;43.570;27.832;2023-02-28T04:40:18;8.05;;;6.50;;
9716;SDS011;4897;43.570;27.832;2023-02-28T04:42:46;12.25;;;7.45;;
9716;SDS011;4897;43.570;27.832;2023-02-28T04:45:13;10.38;;;8.70;;
9716;SDS011;4897;43.570;27.832;2023-02-28T04:47:40;10.27;;;7.20;;
9716;SDS011;4897;43.570;27.832;2023-02-28T04:50:07;18.98;;;8.30;;
9716;SDS011;4897;43.570;27.832;2023-02-28T04:52:35;12.40;;;8.48;;
9716;SDS011;4897;43.570;27.832;2023-02-28T04:55:02;12.15;;;8.50;;
9716;SDS011;4897;43.570;27.832;2023-02-28T04:57:29;10.43;;;7.45;;
9716;SDS011;4897;43.570;27.832;2023-02-28T04:59:57;11.68;;;8.10;;
9716;SDS011;4897;43.570;27.832;2023-02-28T05:02:24;11.95;;;8.00;;
9716;SDS011;4897;43.570;27.832;2023-02-28T05:04:51;11.15;;;8.02;;
9716;SDS011;4897;43.570;27.832;2023-02-28T05:07:18;10.73;;;8.20;;
9716;SDS011;4897;43.570;27.832;2023-02-28T05:09:45;9.95;;;7.78;;
9716;SDS011;4897;43.570;27.832;2023-02-28T05:12:11;11.55;;;8.90;;
9716;SDS011;4897;43.570;27.832;2023-02-28T05:14:38;11.48;;;8.40;;
9716;SDS011;4897;43.570;27.832;2023-02-28T05:17:07;14.82;;;9.05;;
9716;SDS011;4897;43.570;27.832;2023-02-28T05:19:34;13.77;;;9.30;;
9716;SDS011;4897;43.570;27.832;2023-02-28T05:22:01;12.93;;;9.20;;
9716;SDS011;4897;43.570;27.832;2023-02-28T05:24:28;13.07;;;9.55;;
9716;SDS011;4897;43.570;27.832;2023-02-28T05:26:55;14.38;;;9.43;;
9716;SDS011;4897;43.570;27.832;2023-02-28T05:29:23;12.18;;;9.52;;
9716;SDS011;4897;43.570;27.832;2023-02-28T05:31:49;13.02;;;9.70;;
9716;SDS011;4897;43.570;27.832;2023-02-28T05:34:18;13.48;;;10.00;;
9716;SDS011;4897;43.570;27.832;2023-02-28T05:36:45;14.85;;;10.50;;
9716;SDS011;4897;43.570;27.832;2023-02-28T05:39:15;15.90;;;11.15;;
9716;SDS011;4897;43.570;27.832;2023-02-28T05:41:42;17.70;;;12.13;;
9716;SDS011;4897;43.570;27.832;2023-02-28T05:44:09;16.58;;;10.68;;
9716;SDS011;4897;43.570;27.832;2023-02-28T05:46:37;16.08;;;11.13;;
9716;SDS011;4897;43.570;27.832;2023-02-28T05:49:04;17.83;;;11.68;;
9716;SDS011;4897;43.570;27.832;2023-02-28T05:51:32;16.98;;;11.57;;
9716;SDS011;4897;43.570;27.832;2023-02-28T05:54:01;19.17;;;11.70;;
9716;SDS011;4897;43.570;27.832;2023-02-28T05:56:28;17.45;;;12.38;;
9716;SDS011;4897;43.570;27.832;2023-02-28T05:58:55;18.20;;;11.57;;
9716;SDS011;4897;43.570;27.832;2023-02-28T06:01:24;19.48;;;13.13;;
9716;SDS011;4897;43.570;27.832;2023-02-28T06:03:58;21.50;;;13.10;;
9716;SDS011;4897;43.570;27.832;2023-02-28T06:06:26;18.77;;;12.30;;
9716;SDS011;4897;43.570;27.832;2023-02-28T06:08:54;22.08;;;14.43;;
9716;SDS011;4897;43.570;27.832;2023-02-28T06:11:21;20.70;;;13.95;;
9716;SDS011;4897;43.570;27.832;2023-02-28T06:13:53;15.98;;;11.18;;
9716;SDS011;4897;43.570;27.832;2023-02-28T06:16:20;19.05;;;11.98;;
9716;SDS011;4897;43.570;27.832;2023-02-28T06:18:47;18.80;;;12.98;;
9716;SDS011;4897;43.570;27.832;2023-02-28T06:21:14;19.27;;;12.80;;
9716;SDS011;4897;43.570;27.832;2023-02-28T06:23:41;20.35;;;13.35;;
9716;SDS011;4897;43.570;27.832;2023-02-28T06:26:10;20.17;;;12.98;;
9716;SDS011;4897;43.570;27.832;2023-02-28T06:28:37;17.92;;;12.02;;
9716;SDS011;4897;43.570;27.832;2023-02-28T06:31:07;17.88;;;12.85;;
9716;SDS011;4897;43.570;27.832;2023-02-28T06:33:35;23.38;;;15.40;;
9716;SDS011;4897;43.570;27.832;2023-02-28T06:36:03;20.70;;;14.02;;
9716;SDS011;4897;43.570;27.832;2023-02-28T06:38:31;18.25;;;12.55;;
9716;SDS011;4897;43.570;27.832;2023-02-28T06:41:01;17.42;;;12.00;;
9716;SDS011;4897;43.570;27.832;2023-02-28T06:43:31;21.65;;;13.13;;
9716;SDS011;4897;43.570;27.832;2023-02-28T06:46:00;17.45;;;11.55;;
9716;SDS011;4897;43.570;27.832;2023-02-28T06:48:28;16.23;;;11.75;;
9716;SDS011;4897;43.570;27.832;2023-02-28T06:51:00;15.95;;;10.88;;
9716;SDS011;4897;43.570;27.832;2023-02-28T06:53:28;11.95;;;8.68;;
9716;SDS011;4897;43.570;27.832;2023-02-28T06:55:55;12.93;;;9.02;;
9716;SDS011;4897;43.570;27.832;2023-02-28T06:58:21;14.63;;;9.68;;
9716;SDS011;4897;43.570;27.832;2023-02-28T07:00:51;15.13;;;9.43;;
9716;SDS011;4897;43.570;27.832;2023-02-28T07:03:18;12.63;;;8.85;;
9716;SDS011;4897;43.570;27.832;2023-02-28T07:05:45;12.18;;;7.95;;
9716;SDS011;4897;43.570;27.832;2023-02-28T07:08:14;12.40;;;8.18;;
9716;SDS011;4897;43.570;27.832;2023-02-28T07:10:41;12.25;;;8.20;;
9716;SDS011;4897;43.570;27.832;2023-02-28T07:13:11;12.75;;;8.88;;
9716;SDS011;4897;43.570;27.832;2023-02-28T07:15:38;11.95;;;8.82;;
9716;SDS011;4897;43.570;27.832;2023-02-28T07:18:06;10.75;;;8.30;;
9716;SDS011;4897;43.570;27.832;2023-02-28T07:20:33;10.55;;;7.90;;
9716;SDS011;4897;43.570;27.832;2023-02-28T07:23:00;13.40;;;8.80;;
9716;SDS011;4897;43.570;27.832;2023-02-28T07:25:27;12.48;;;8.82;;
9716;SDS011;4897;43.570;27.832;2023-02-28T07:27:55;11.25;;;8.35;;
9716;SDS011;4897;43.570;27.832;2023-02-28T07:30:24;15.98;;;10.50;;
9716;SDS011;4897;43.570;27.832;2023-02-28T07:32:53;16.50;;;11.25;;
9716;SDS011;4897;43.570;27.832;2023-02-28T07:35:22;12.55;;;9.63;;
9716;SDS011;4897;43.570;27.832;2023-02-28T07:37:52;12.43;;;10.25;;
9716;SDS011;4897;43.570;27.832;2023-02-28T07:40:19;13.18;;;9.25;;
9716;SDS011;4897;43.570;27.832;2023-02-28T07:42:50;16.65;;;11.73;;
9716;SDS011;4897;43.570;27.832;2023-02-28T07:45:17;13.73;;;9.65;;
9716;SDS011;4897;43.570;27.832;2023-02-28T07:47:44;9.70;;;7.53;;
9716;SDS011;4897;43.570;27.832;2023-02-28T07:50:12;10.93;;;7.72;;
9716;SDS011;4897;43.570;27.832;2023-02-28T07:52:44;10.18;;;7.05;;
9716;SDS011;4897;43.570;27.832;2023-02-28T07:55:11;9.82;;;7.30;;
9716;SDS011;4897;43.570;27.832;2023-02-28T07:57:39;11.57;;;8.13;;
9716;SDS011;4897;43.570;27.832;2023-02-28T08:00:06;11.43;;;7.15;;
9716;SDS011;4897;43.570;27.832;2023-02-28T08:02:35;14.90;;;7.88;;
9716;SDS011;4897;43.570;27.832;2023-02-28T08:05:03;12.77;;;8.02;;
9716;SDS011;4897;43.570;27.832;2023-02-28T08:07:30;9.43;;;7.38;;
9716;SDS011;4897;43.570;27.832;2023-02-28T08:10:00;15.57;;;7.80;;
9716;SDS011;4897;43.570;27.832;2023-02-28T08:12:27;10.15;;;7.50;;
9716;SDS011;4897;43.570;27.832;2023-02-28T08:14:57;16.55;;;8.23;;
9716;SDS011;4897;43.570;27.832;2023-02-28T08:17:24;12.50;;;8.40;;
9716;SDS011;4897;43.570;27.832;2023-02-28T08:19:51;9.13;;;6.38;;
9716;SDS011;4897;43.570;27.832;2023-02-28T08:22:18;18.88;;;11.45;;
9716;SDS011;4897;43.570;27.832;2023-02-28T08:24:45;15.43;;;10.82;;
9716;SDS011;4897;43.570;27.832;2023-02-28T08:27:13;17.88;;;7.90;;
9716;SDS011;4897;43.570;27.832;2023-02-28T08:29:40;7.65;;;5.40;;
9716;SDS011;4897;43.570;27.832;2023-02-28T08:32:07;8.45;;;5.35;;
9716;SDS011;4897;43.570;27.832;2023-02-28T08:34:34;7.25;;;5.05;;
9716;SDS011;4897;43.570;27.832;2023-02-28T08:37:01;14.73;;;6.28;;
9716;SDS011;4897;43.570;27.832;2023-02-28T08:39:28;12.75;;;7.18;;
9716;SDS011;4897;43.570;27.832;2023-02-28T08:41:55;7.15;;;5.70;;
9716;SDS011;4897;43.570;27.832;2023-02-28T08:44:23;8.77;;;6.38;;
9716;SDS011;4897;43.570;27.832;2023-02-28T08:46:50;9.10;;;6.20;;
9716;SDS011;4897;43.570;27.832;2023-02-28T08:49:17;6.38;;;4.93;;
9716;SDS011;4897;43.570;27.832;2023-02-28T08:51:44;7.57;;;5.88;;
9716;SDS011;4897;43.570;27.832;2023-02-28T08:54:10;10.07;;;5.95;;
9716;SDS011;4897;43.570;27.832;2023-02-28T08:56:39;5.95;;;4.75;;
9716;SDS011;4897;43.570;27.832;2023-02-28T08:59:08;11.40;;;6.32;;
9716;SDS011;4897;43.570;27.832;2023-02-28T09:01:37;17.38;;;6.35;;
9716;SDS011;4897;43.570;27.832;2023-02-28T09:04:04;9.50;;;5.50;;
9716;SDS011;4897;43.570;27.832;2023-02-28T09:06:33;10.35;;;6.65;;
9716;SDS011;4897;43.570;27.832;2023-02-28T09:09:00;10.32;;;6.75;;
9716;SDS011;4897;43.570;27.832;2023-02-28T09:11:29;11.18;;;7.05;;
9716;SDS011;4897;43.570;27.832;2023-02-28T09:13:57;13.43;;;7.60;;
9716;SDS011;4897;43.570;27.832;2023-02-28T09:16:25;9.23;;;6.22;;
9716;SDS011;4897;43.570;27.832;2023-02-28T09:18:54;8.73;;;6.85;;
9716;SDS011;4897;43.570;27.832;2023-02-28T09:21:20;10.60;;;8.75;;
9716;SDS011;4897;43.570;27.832;2023-02-28T09:23:48;8.00;;;6.90;;
9716;SDS011;4897;43.570;27.832;2023-02-28T09:26:17;10.45;;;6.70;;
9716;SDS011;4897;43.570;27.832;2023-02-28T09:28:45;8.88;;;6.88;;
9716;SDS011;4897;43.570;27.832;2023-02-28T09:31:13;10.02;;;6.55;;
9716;SDS011;4897;43.570;27.832;2023-02-28T09:33:42;6.45;;;5.35;;
9716;SDS011;4897;43.570;27.832;2023-02-28T09:36:10;8.70;;;5.50;;
9716;SDS011;4897;43.570;27.832;2023-02-28T09:38:37;12.57;;;6.07;;
9716;SDS011;4897;43.570;27.832;2023-02-28T09:41:10;6.97;;;5.85;;
9716;SDS011;4897;43.570;27.832;2023-02-28T09:43:40;19.73;;;6.90;;
9716;SDS011;4897;43.570;27.832;2023-02-28T09:46:14;9.32;;;6.55;;
9716;SDS011;4897;43.570;27.832;2023-02-28T09:48:52;15.85;;;8.40;;
9716;SDS011;4897;43.570;27.832;2023-02-28T09:51:32;13.05;;;7.53;;
9716;SDS011;4897;43.570;27.832;2023-02-28T09:54:04;12.07;;;6.65;;
9716;SDS011;4897;43.570;27.832;2023-02-28T09:56:33;10.88;;;7.35;;
9716;SDS011;4897;43.570;27.832;2023-02-28T09:59:04;12.00;;;6.28;;
9716;SDS011;4897;43.570;27.832;2023-02-28T10:01:39;8.23;;;5.93;;
9716;SDS011;4897;43.570;27.832;2023-02-28T10:04:15;13.05;;;7.57;;
9716;SDS011;4897;43.570;27.832;2023-02-28T10:06:55;9.52;;;6.70;;
9716;SDS011;4897;43.570;27.832;2023-02-28T10:09:24;11.90;;;7.20;;
9716;SDS011;4897;43.570;27.832;2023-02-28T10:11:54;14.02;;;7.75;;
9716;SDS011;4897;43.570;27.832;2023-02-28T10:17:30;11.00;;;7.07;;
9716;SDS011;4897;43.570;27.832;2023-02-28T10:20:04;8.88;;;6.18;;
9716;SDS011;4897;43.570;27.832;2023-02-28T10:22:40;14.75;;;6.75;;
9716;SDS011;4897;43.570;27.832;2023-02-28T10:25:17;12.90;;;7.60;;
9716;SDS011;4897;43.570;27.832;2023-02-28T10:27:46;8.60;;;6.18;;
9716;SDS011;4897;43.570;27.832;2023-02-28T10:30:13;11.13;;;7.10;;
9716;SDS011;4897;43.570;27.832;2023-02-28T10:32:41;15.70;;;8.10;;
9716;SDS011;4897;43.570;27.832;2023-02-28T10:35:15;9.68;;;6.57;;
9716;SDS011;4897;43.570;27.832;2023-02-28T10:37:45;10.98;;;7.53;;
9716;SDS011;4897;43.570;27.832;2023-02-28T10:40:25;12.25;;;7.30;;
9716;SDS011;4897;43.570;27.832;2023-02-28T10:42:55;13.93;;;6.88;;
9716;SDS011;4897;43.570;27.832;2023-02-28T10:45:24;13.05;;;8.02;;
9716;SDS011;4897;43.570;27.832;2023-02-28T10:47:53;13.65;;;7.13;;
9716;SDS011;4897;43.570;27.832;2023-02-28T10:50:32;8.13;;;6.53;;
9716;SDS011;4897;43.570;27.832;2023-02-28T10:56:04;9.63;;;6.88;;
9716;SDS011;4897;43.570;27.832;2023-02-28T10:58:42;11.98;;;6.60;;
9716;SDS011;4897;43.570;27.832;2023-02-28T11:01:14;9.32;;;7.00;;
9716;SDS011;4897;43.570;27.832;2023-02-28T11:03:43;9.13;;;6.50;;
9716;SDS011;4897;43.570;27.832;2023-02-28T11:06:13;11.15;;;6.68;;
9716;SDS011;4897;43.570;27.832;2023-02-28T11:08:47;10.25;;;6.55;;
9716;SDS011;4897;43.570;27.832;2023-02-28T11:11:17;19.70;;;7.25;;
9716;SDS011;4897;43.570;27.832;2023-02-28T11:13:46;13.30;;;8.18;;
9716;SDS011;4897;43.570;27.832;2023-02-28T11:16:15;9.73;;;7.22;;
9716;SDS011;4897;43.570;27.832;2023-02-28T11:18:44;10.10;;;6.53;;
9716;SDS011;4897;43.570;27.832;2023-02-28T11:21:15;9.52;;;7.35;;
9716;SDS011;4897;43.570;27.832;2023-02-28T11:23:51;14.45;;;8.57;;
9716;SDS011;4897;43.570;27.832;2023-02-28T11:26:37;10.02;;;7.40;;
9716;SDS011;4897;43.570;27.832;2023-02-28T11:29:09;14.50;;;8.35;;
9716;SDS011;4897;43.570;27.832;2023-02-28T11:31:39;11.13;;;7.22;;
9716;SDS011;4897;43.570;27.832;2023-02-28T11:34:22;11.10;;;7.57;;
9716;SDS011;4897;43.570;27.832;2023-02-28T11:36:51;9.50;;;7.43;;
9716;SDS011;4897;43.570;27.832;2023-02-28T11:39:22;10.63;;;7.65;;
9716;SDS011;4897;43.570;27.832;2023-02-28T11:41:55;20.15;;;8.45;;
9716;SDS011;4897;43.570;27.832;2023-02-28T11:44:45;12.30;;;6.70;;
9716;SDS011;4897;43.570;27.832;2023-02-28T11:47:24;17.90;;;10.00;;
9716;SDS011;4897;43.570;27.832;2023-02-28T11:50:07;11.95;;;7.55;;
9716;SDS011;4897;43.570;27.832;2023-02-28T11:52:45;10.57;;;6.95;;
9716;SDS011;4897;43.570;27.832;2023-02-28T11:55:20;14.65;;;8.45;;
9716;SDS011;4897;43.570;27.832;2023-02-28T12:01:01;16.92;;;8.20;;
9716;SDS011;4897;43.570;27.832;2023-02-28T12:03:38;10.52;;;6.85;;
9716;SDS011;4897;43.570;27.832;2023-02-28T12:06:15;10.63;;;7.20;;
9716;SDS011;4897;43.570;27.832;2023-02-28T12:08:51;11.65;;;7.40;;
9716;SDS011;4897;43.570;27.832;2023-02-28T12:11:34;10.60;;;6.38;;
9716;SDS011;4897;43.570;27.832;2023-02-28T12:14:18;8.63;;;6.65;;
9716;SDS011;4897;43.570;27.832;2023-02-28T12:17:02;9.70;;;6.55;;
9716;SDS011;4897;43.570;27.832;2023-02-28T12:19:43;8.85;;;6.55;;
9716;SDS011;4897;43.570;27.832;2023-02-28T12:22:19;8.43;;;5.97;;
9716;SDS011;4897;43.570;27.832;2023-02-28T12:28:00;9.02;;;7.07;;
9716;SDS011;4897;43.570;27.832;2023-02-28T12:30:28;8.88;;;6.53;;
9716;SDS011;4897;43.570;27.832;2023-02-28T12:33:00;13.68;;;8.05;;
9716;SDS011;4897;43.570;27.832;2023-02-28T12:35:34;12.20;;;7.60;;
9716;SDS011;4897;43.570;27.832;2023-02-28T12:38:05;9.77;;;6.30;;
9716;SDS011;4897;43.570;27.832;2023-02-28T12:40:41;11.18;;;6.70;;
9716;SDS011;4897;43.570;27.832;2023-02-28T12:43:12;9.18;;;7.10;;
9716;SDS011;4897;43.570;27.832;2023-02-28T12:45:44;11.10;;;7.22;;
9716;SDS011;4897;43.570;27.832;2023-02-28T12:48:15;13.25;;;7.30;;
9716;SDS011;4897;43.570;27.832;2023-02-28T12:50:47;11.48;;;7.38;;
9716;SDS011;4897;43.570;27.832;2023-02-28T12:53:16;12.32;;;7.97;;
9716;SDS011;4897;43.570;27.832;2023-02-28T12:55:51;12.27;;;8.43;;
9716;SDS011;4897;43.570;27.832;2023-02-28T12:58:29;12.98;;;8.57;;
9716;SDS011;4897;43.570;27.832;2023-02-28T13:10:26;14.35;;;8.75;;
9716;SDS011;4897;43.570;27.832;2023-02-28T13:13:06;22.92;;;9.18;;
9716;SDS011;4897;43.570;27.832;2023-02-28T13:15:41;12.90;;;9.02;;
9716;SDS011;4897;43.570;27.832;2023-02-28T13:18:27;13.70;;;9.25;;
9716;SDS011;4897;43.570;27.832;2023-02-28T13:20:56;12.63;;;8.70;;
9716;SDS011;4897;43.570;27.832;2023-02-28T13:23:37;16.42;;;9.70;;
9716;SDS011;4897;43.570;27.832;2023-02-28T13:26:23;14.00;;;10.13;;
9716;SDS011;4897;43.570;27.832;2023-02-28T13:29:37;20.50;;;11.55;;
9716;SDS011;4897;43.570;27.832;2023-02-28T13:35:14;14.95;;;11.18;;
9716;SDS011;4897;43.570;27.832;2023-02-28T13:44:06;14.75;;;9.77;;
9716;SDS011;4897;43.570;27.832;2023-02-28T13:46:35;16.63;;;9.82;;
9716;SDS011;4897;43.570;27.832;2023-02-28T13:49:26;15.15;;;9.82;;
9716;SDS011;4897;43.570;27.832;2023-02-28T13:51:55;17.48;;;10.95;;
9716;SDS011;4897;43.570;27.832;2023-02-28T13:54:39;17.88;;;10.52;;
9716;SDS011;4897;43.570;27.832;2023-02-28T13:57:21;18.05;;;11.07;;
9716;SDS011;4897;43.570;27.832;2023-02-28T14:00:02;18.25;;;11.05;;
9716;SDS011;4897;43.570;27.832;2023-02-28T14:02:59;17.80;;;11.65;;
9716;SDS011;4897;43.570;27.832;2023-02-28T14:05:35;19.75;;;11.85;;
9716;SDS011;4897;43.570;27.832;2023-02-28T14:08:04;19.63;;;12.98;;
9716;SDS011;4897;43.570;27.832;2023-02-28T14:10:41;21.67;;;13.82;;
9716;SDS011;4897;43.570;27.832;2023-02-28T14:13:17;20.33;;;12.55;;
9716;SDS011;4897;43.570;27.832;2023-02-28T14:16:09;16.50;;;11.52;;
9716;SDS011;4897;43.570;27.832;2023-02-28T14:18:37;24.00;;;13.05;;
9716;SDS011;4897;43.570;27.832;2023-02-28T14:21:12;23.52;;;14.15;;
9716;SDS011;4897;43.570;27.832;2023-02-28T14:23:56;22.27;;;14.50;;
9716;SDS011;4897;43.570;27.832;2023-02-28T14:30:12;26.30;;;13.55;;
9716;SDS011;4897;43.570;27.832;2023-02-28T14:32:58;19.80;;;12.55;;
9716;SDS011;4897;43.570;27.832;2023-02-28T14:35:40;19.40;;;11.35;;
9716;SDS011;4897;43.570;27.832;2023-02-28T14:38:18;22.95;;;11.10;;
9716;SDS011;4897;43.570;27.832;2023-02-28T14:40:49;17.45;;;12.25;;
9716;SDS011;4897;43.570;27.832;2023-02-28T14:43:22;23.27;;;13.05;;
9716;SDS011;4897;43.570;27.832;2023-02-28T14:45:50;19.83;;;13.43;;
9716;SDS011;4897;43.570;27.832;2023-02-28T14:48:19;23.55;;;13.98;;
9716;SDS011;4897;43.570;27.832;2023-02-28T14:50:49;23.40;;;14.85;;
9716;SDS011;4897;43.570;27.832;2023-02-28T14:53:20;24.92;;;15.90;;
9716;SDS011;4897;43.570;27.832;2023-02-28T14:55:49;16.70;;;11.18;;
9716;SDS011;4897;43.570;27.832;2023-02-28T14:58:22;21.98;;;13.13;;
9716;SDS011;4897;43.570;27.832;2023-02-28T15:00:51;20.08;;;11.50;;
9716;SDS011;4897;43.570;27.832;2023-02-28T15:03:20;19.50;;;11.30;;
9716;SDS011;4897;43.570;27.832;2023-02-28T15:05:52;18.98;;;12.02;;
9716;SDS011;4897;43.570;27.832;2023-02-28T15:08:21;21.65;;;13.13;;
9716;SDS011;4897;43.570;27.832;2023-02-28T15:10:52;20.52;;;13.63;;
9716;SDS011;4897;43.570;27.832;2023-02-28T15:13:22;20.73;;;13.38;;
9716;SDS011;4897;43.570;27.832;2023-02-28T15:15:52;19.48;;;12.48;;
9716;SDS011;4897;43.570;27.832;2023-02-28T15:18:23;17.42;;;12.00;;
9716;SDS011;4897;43.570;27.832;2023-02-28T15:20:56;21.15;;;11.90;;
9716;SDS011;4897;43.570;27.832;2023-02-28T15:23:28;18.05;;;12.00;;
9716;SDS011;4897;43.570;27.832;2023-02-28T15:25:56;18.45;;;11.82;;
9716;SDS011;4897;43.570;27.832;2023-02-28T15:28:24;20.88;;;13.38;;
9716;SDS011;4897;43.570;27.832;2023-02-28T15:30:56;19.05;;;13.23;;
9716;SDS011;4897;43.570;27.832;2023-02-28T15:33:24;19.52;;;11.88;;
9716;SDS011;4897;43.570;27.832;2023-02-28T15:36:03;20.60;;;12.45;;
9716;SDS011;4897;43.570;27.832;2023-02-28T15:38:35;22.63;;;12.10;;
9716;SDS011;4897;43.570;27.832;2023-02-28T15:41:02;16.77;;;9.90;;
9716;SDS011;4897;43.570;27.832;2023-02-28T15:43:34;16.92;;;11.80;;
9716;SDS011;4897;43.570;27.832;2023-02-28T15:46:02;20.88;;;11.23;;
9716;SDS011;4897;43.570;27.832;2023-02-28T15:48:31;15.50;;;10.85;;
9716;SDS011;4897;43.570;27.832;2023-02-28T15:51:02;19.50;;;12.13;;
9716;SDS011;4897;43.570;27.832;2023-02-28T15:53:33;20.48;;;13.00;;
9716;SDS011;4897;43.570;27.832;2023-02-28T15:56:07;17.38;;;12.07;;